createdAt,value
2017-03-29T00:02:10.840Z,13.33
2017-03-29T00:07:07.575Z,13.25
2017-03-29T00:12:04.418Z,13.11
2017-03-29T00:17:00.981Z,12.91
2017-03-29T00:21:57.197Z,12.94
2017-03-29T00:26:53.418Z,12.83
2017-03-29T00:31:49.897Z,12.76
2017-03-29T00:36:47.270Z,12.86
2017-03-29T00:41:43.941Z,12.79
2017-03-29T00:46:40.193Z,12.53
2017-03-29T00:51:37.322Z,12.57
2017-03-29T00:56:34.007Z,12.39
2017-03-29T01:01:30.122Z,12.40
2017-03-29T01:06:27.908Z,12.39
2017-03-29T01:11:23.667Z,12.40
2017-03-29T01:16:20.473Z,12.25
2017-03-29T01:21:16.789Z,12.40
2017-03-29T01:26:13.387Z,12.32
2017-03-29T01:31:09.689Z,12.28
2017-03-29T01:36:06.083Z,12.13
2017-03-29T01:41:02.605Z,12.10
2017-03-29T01:45:59.366Z,12.15
2017-03-29T01:50:55.909Z,12.07
2017-03-29T01:55:53.658Z,11.88
2017-03-29T02:00:49.811Z,11.90
2017-03-29T02:05:46.093Z,11.80
2017-03-29T02:10:43.273Z,11.86
2017-03-29T02:15:39.737Z,11.81
2017-03-29T02:20:36.753Z,11.91
2017-03-29T02:25:33.488Z,11.91
2017-03-29T02:30:30.094Z,11.81
2017-03-29T02:35:26.586Z,11.84
2017-03-29T02:40:23.636Z,11.69
2017-03-29T02:45:20.216Z,11.69
2017-03-29T02:50:16.888Z,11.77
2017-03-29T02:55:13.856Z,11.69
2017-03-29T03:00:10.838Z,11.54
2017-03-29T03:05:07.379Z,11.77
2017-03-29T03:10:03.791Z,11.66
2017-03-29T03:15:00.967Z,11.57
2017-03-29T03:19:57.340Z,11.50
2017-03-29T03:24:54.298Z,11.55
2017-03-29T03:29:51.380Z,11.54
2017-03-29T03:34:47.900Z,11.57
2017-03-29T03:39:44.415Z,11.62
2017-03-29T03:44:41.214Z,11.70
2017-03-29T03:49:37.647Z,11.54
2017-03-29T03:54:34.979Z,11.60
2017-03-29T03:59:31.242Z,11.50
2017-03-29T04:04:27.538Z,11.52
2017-03-29T04:09:24.401Z,11.47
2017-03-29T04:14:21.553Z,11.43
2017-03-29T04:19:17.677Z,11.33
2017-03-29T04:24:14.403Z,11.40
2017-03-29T04:29:10.802Z,11.35
2017-03-29T04:34:07.804Z,11.51
2017-03-29T04:39:05.286Z,11.36
2017-03-29T04:44:04.286Z,11.48
2017-03-29T04:49:00.325Z,11.48
2017-03-29T04:53:57.009Z,11.41
2017-03-29T04:58:53.538Z,11.43
2017-03-29T05:03:49.806Z,11.48
2017-03-29T05:08:46.209Z,11.45
2017-03-29T05:13:42.723Z,11.44
2017-03-29T05:18:39.260Z,11.63
2017-03-29T05:23:35.651Z,11.63
2017-03-29T05:28:33.095Z,11.77
2017-03-29T05:33:29.590Z,11.73
2017-03-29T05:38:25.925Z,11.73
2017-03-29T05:43:22.462Z,11.77
2017-03-29T05:48:19.308Z,11.80
2017-03-29T05:53:16.015Z,11.81
2017-03-29T05:58:13.061Z,11.88
2017-03-29T06:03:09.232Z,11.94
2017-03-29T06:08:06.266Z,11.99
2017-03-29T06:13:02.520Z,12.02
2017-03-29T06:18:00.296Z,12.06
2017-03-29T06:22:57.514Z,12.12
2017-03-29T06:27:54.108Z,12.22
2017-03-29T06:32:51.091Z,12.22
2017-03-29T06:37:47.756Z,12.28
2017-03-29T06:42:44.150Z,12.40
2017-03-29T06:47:40.555Z,12.49
2017-03-29T06:52:37.281Z,12.36
2017-03-29T06:57:33.948Z,12.47
2017-03-29T07:02:30.549Z,12.49
2017-03-29T07:07:27.320Z,12.57
2017-03-29T07:12:23.922Z,12.49
2017-03-29T07:17:20.288Z,12.60
2017-03-29T07:22:16.689Z,12.62
2017-03-29T07:27:13.420Z,12.75
2017-03-29T07:32:10.094Z,12.80
2017-03-29T07:37:06.830Z,12.83
2017-03-29T07:42:03.209Z,12.91
2017-03-29T07:47:00.158Z,12.95
2017-03-29T07:51:59.929Z,13.11
2017-03-29T07:56:56.210Z,13.09
2017-03-29T08:01:53.138Z,13.23
2017-03-29T08:06:49.471Z,13.47
2017-03-29T08:11:46.322Z,13.81
2017-03-29T08:16:45.446Z,14.15
2017-03-29T08:26:49.874Z,14.11
2017-03-29T08:31:46.731Z,14.03
2017-03-29T08:36:43.279Z,14.04
2017-03-29T08:41:41.279Z,14.05
2017-03-29T08:46:40.211Z,14.41
2017-03-29T08:51:38.306Z,14.85
2017-03-29T08:56:35.456Z,15.35
2017-03-29T09:01:33.874Z,15.42
2017-03-29T09:06:31.119Z,15.58
2017-03-29T09:11:27.993Z,15.52
2017-03-29T09:16:25.555Z,15.35
2017-03-29T09:21:21.387Z,15.33
2017-03-29T09:26:17.861Z,15.22
2017-03-29T09:31:14.411Z,15.10
2017-03-29T09:36:11.321Z,14.99
2017-03-29T09:41:08.195Z,15.00
2017-03-29T09:46:04.909Z,14.86
2017-03-29T09:51:05.609Z,14.86
2017-03-29T09:56:03.946Z,14.81
2017-03-29T10:01:00.838Z,14.68
2017-03-29T10:05:57.217Z,14.72
2017-03-29T10:10:53.513Z,14.84
2017-03-29T10:15:51.511Z,14.86
2017-03-29T10:20:48.755Z,14.96
2017-03-29T10:25:45.196Z,14.88
2017-03-29T10:30:41.584Z,14.91
2017-03-29T10:35:38.263Z,14.89
2017-03-29T10:40:34.824Z,14.89
2017-03-29T10:45:31.354Z,14.99
2017-03-29T10:50:28.001Z,14.97
2017-03-29T10:55:24.449Z,14.91
2017-03-29T11:00:21.287Z,14.78
2017-03-29T11:05:17.629Z,14.65
2017-03-29T11:10:14.678Z,14.86
2017-03-29T11:15:12.082Z,14.89
2017-03-29T11:20:10.690Z,15.03
2017-03-29T11:25:06.795Z,15.06
2017-03-29T11:30:03.363Z,14.89
2017-03-29T11:35:00.601Z,14.84
2017-03-29T11:39:57.050Z,14.84
2017-03-29T11:44:54.623Z,15.06
2017-03-29T11:49:51.496Z,15.31
2017-03-29T11:54:48.677Z,15.15
2017-03-29T11:59:46.543Z,15.35
2017-03-29T12:04:44.336Z,15.73
2017-03-29T12:09:42.882Z,16.32
2017-03-29T12:14:39.436Z,16.60
2017-03-29T12:19:35.439Z,15.98
2017-03-29T12:24:31.289Z,15.72
2017-03-29T12:29:27.771Z,15.70
2017-03-29T12:34:24.032Z,15.58
2017-03-29T12:39:21.463Z,15.62
2017-03-29T12:44:18.016Z,15.58
2017-03-29T12:49:14.470Z,15.54
2017-03-29T12:54:10.662Z,15.46
2017-03-29T12:59:07.224Z,15.35
2017-03-29T13:04:05.293Z,15.49
2017-03-29T13:09:01.363Z,15.29
2017-03-29T13:13:58.034Z,15.35
2017-03-29T13:18:57.302Z,15.28
2017-03-29T13:23:53.188Z,15.19
2017-03-29T13:28:50.706Z,15.18
2017-03-29T13:33:47.001Z,15.10
2017-03-29T13:43:49.836Z,14.84
2017-03-29T13:48:50.089Z,14.84
2017-03-29T13:53:45.959Z,15.00
2017-03-29T13:58:43.021Z,15.15
2017-03-29T14:03:40.687Z,15.22
2017-03-29T14:08:37.214Z,15.24
2017-03-29T14:13:33.793Z,15.18
2017-03-29T14:18:31.160Z,15.00
2017-03-29T14:23:27.617Z,14.88
2017-03-29T14:28:26.092Z,14.82
2017-03-29T14:33:22.047Z,14.66
2017-03-29T14:38:18.611Z,14.68
2017-03-29T14:43:15.093Z,14.60
2017-03-29T14:48:11.944Z,14.43
2017-03-29T14:53:13.278Z,14.62
2017-03-29T14:58:09.201Z,14.54
2017-03-29T15:03:05.842Z,14.62
2017-03-29T15:08:02.628Z,14.58
2017-03-29T15:12:59.750Z,14.63
2017-03-29T15:17:56.030Z,14.58
2017-03-29T15:22:52.914Z,14.60
2017-03-29T15:27:49.788Z,14.58
2017-03-29T15:32:46.163Z,14.58
2017-03-29T15:37:42.890Z,14.54
2017-03-29T15:42:43.256Z,14.59
2017-03-29T15:47:39.473Z,14.59
2017-03-29T15:52:36.191Z,14.78
2017-03-29T15:57:33.086Z,14.78
2017-03-29T16:02:29.503Z,14.81
2017-03-29T16:07:26.138Z,14.79
2017-03-29T16:12:23.027Z,14.70
2017-03-29T16:17:20.255Z,14.78
2017-03-29T16:22:16.531Z,14.63
2017-03-29T16:27:13.526Z,14.58
2017-03-29T16:32:10.619Z,14.66
2017-03-29T16:37:07.924Z,14.63
2017-03-29T16:42:04.743Z,14.66
2017-03-29T16:47:01.848Z,14.60
2017-03-29T16:52:03.960Z,14.72
2017-03-29T16:57:00.026Z,14.65
2017-03-29T17:01:56.473Z,14.79
2017-03-29T17:06:53.112Z,14.73
2017-03-29T17:11:49.521Z,14.72
2017-03-29T17:16:46.197Z,14.72
2017-03-29T17:21:43.388Z,14.69
2017-03-29T17:26:39.533Z,14.73
2017-03-29T17:31:36.067Z,14.68
2017-03-29T17:36:32.661Z,14.65
2017-03-29T17:41:29.188Z,14.55
2017-03-29T17:46:25.909Z,14.43
2017-03-29T17:51:22.225Z,14.50
2017-03-29T17:56:18.786Z,14.33
2017-03-29T18:01:14.894Z,14.41
2017-03-29T18:06:11.600Z,14.29
2017-03-29T18:11:08.555Z,14.22
2017-03-29T18:16:05.216Z,14.17
2017-03-29T18:21:01.782Z,14.22
2017-03-29T18:25:58.028Z,14.18
2017-03-29T18:30:56.408Z,14.23
2017-03-29T18:35:52.626Z,14.29
2017-03-29T18:40:49.169Z,14.33
2017-03-29T18:45:45.823Z,14.29
2017-03-29T18:50:41.936Z,14.33
2017-03-29T18:55:38.549Z,14.36
2017-03-29T19:00:34.789Z,14.36
2017-03-29T19:05:34.965Z,14.36
2017-03-29T19:10:31.397Z,14.30
2017-03-29T19:15:28.024Z,14.33
2017-03-29T19:20:24.575Z,14.20
2017-03-29T19:25:21.246Z,14.33
2017-03-29T19:30:18.487Z,14.30
2017-03-29T19:35:15.045Z,14.29
2017-03-29T19:40:11.829Z,14.30
2017-03-29T19:45:08.270Z,14.26
2017-03-29T19:50:04.703Z,14.17
2017-03-29T19:55:01.238Z,14.15
2017-03-29T19:59:58.212Z,14.15
2017-03-29T20:04:55.866Z,14.07
2017-03-29T20:09:52.081Z,14.04
2017-03-29T20:14:48.386Z,13.99
2017-03-29T20:19:44.852Z,14.05
2017-03-29T20:24:41.346Z,13.96
2017-03-29T20:29:37.644Z,13.92
2017-03-29T20:34:35.217Z,13.89
2017-03-29T20:39:31.696Z,13.89
2017-03-29T20:44:28.450Z,13.81
2017-03-29T20:49:24.977Z,13.78
2017-03-29T20:54:21.484Z,13.86
2017-03-29T20:59:18.494Z,13.83
2017-03-29T21:04:14.657Z,13.83
2017-03-29T21:09:11.119Z,13.86
2017-03-29T21:14:07.633Z,13.79
2017-03-29T21:19:03.975Z,13.78
2017-03-29T21:24:00.949Z,13.79
2017-03-29T21:28:57.247Z,13.86
2017-03-29T21:33:53.383Z,13.83
2017-03-29T21:38:50.065Z,13.75
2017-03-29T21:43:47.454Z,13.79
2017-03-29T21:48:46.417Z,13.77
2017-03-29T21:53:42.405Z,13.77
2017-03-29T21:58:38.964Z,13.75
2017-03-29T22:03:35.560Z,13.70
2017-03-29T22:08:32.910Z,13.72
2017-03-29T22:13:29.546Z,13.79
2017-03-29T22:18:26.110Z,13.74
2017-03-29T22:23:23.150Z,13.81
2017-03-29T22:28:19.777Z,13.71
2017-03-29T22:33:16.542Z,13.81
2017-03-29T22:38:12.967Z,13.79
2017-03-29T22:43:09.749Z,13.81
2017-03-29T22:48:06.240Z,13.78
2017-03-29T22:53:03.845Z,13.83
2017-03-29T22:58:00.067Z,13.74
2017-03-29T23:02:57.105Z,13.70
2017-03-29T23:07:53.523Z,13.83
2017-03-29T23:12:51.063Z,13.83
2017-03-29T23:17:47.393Z,13.79
2017-03-29T23:22:43.856Z,13.89
2017-03-29T23:27:40.445Z,13.86
2017-03-29T23:32:36.973Z,13.83
2017-03-29T23:37:33.618Z,13.81
2017-03-29T23:42:31.231Z,13.97
2017-03-29T23:47:28.366Z,13.99
2017-03-29T23:52:24.704Z,13.96
2017-03-29T23:57:21.597Z,13.90
